createdAt,value
2019-03-19T18:21:49.874Z,961.46
2019-03-19T18:22:40.725Z,961.44
2019-03-19T18:23:39.187Z,961.48
2019-03-19T18:24:39.281Z,961.44
2019-03-19T18:25:39.106Z,961.48
2019-03-19T18:26:39.123Z,961.43
2019-03-19T18:27:39.102Z,961.47
2019-03-19T18:28:39.064Z,961.45
2019-03-19T18:29:39.052Z,961.44
2019-03-19T18:30:39.066Z,961.45
2019-03-19T18:31:39.056Z,961.44
2019-03-19T18:32:39.021Z,961.49
2019-03-19T18:33:39.008Z,961.48
2019-03-19T18:34:38.994Z,961.49
2019-03-19T18:35:39.019Z,961.51
2019-03-19T18:36:38.994Z,961.50
2019-03-19T18:37:38.959Z,961.53
2019-03-19T18:38:38.949Z,961.53
2019-03-19T18:39:38.942Z,961.51
2019-03-19T18:40:38.929Z,961.52
2019-03-19T18:41:38.952Z,961.52
2019-03-19T18:42:38.906Z,961.49
2019-03-19T18:43:38.892Z,961.49
2019-03-19T18:44:38.880Z,961.53
2019-03-19T18:45:38.893Z,961.52
2019-03-19T18:46:38.855Z,961.58
2019-03-19T18:47:38.854Z,961.58
2019-03-19T18:48:38.835Z,961.55
2019-03-19T18:49:38.822Z,961.59
2019-03-19T18:50:38.835Z,961.60
2019-03-19T18:51:38.805Z,961.60
2019-03-19T18:52:38.789Z,961.61
2019-03-19T18:53:38.830Z,961.66
2019-03-19T18:54:38.774Z,961.66
2019-03-19T18:55:38.759Z,961.68
2019-03-19T18:56:38.749Z,961.69
2019-03-19T18:57:41.328Z,961.70
2019-03-19T18:58:38.725Z,961.72
2019-03-19T18:59:38.730Z,961.70
2019-03-19T19:00:38.729Z,961.71
2019-03-19T19:01:38.685Z,961.74
2019-03-19T19:02:49.137Z,961.69
2019-03-19T19:03:40.406Z,961.74
2019-03-19T19:04:38.657Z,961.75
2019-03-19T19:05:38.686Z,961.77
2019-03-19T19:06:38.630Z,961.75
2019-03-19T19:07:38.640Z,961.72
2019-03-19T19:08:38.632Z,961.77
2019-03-19T19:09:38.594Z,961.74
2019-03-19T19:10:38.582Z,961.75
2019-03-19T19:11:38.591Z,961.80
2019-03-19T19:12:38.558Z,961.80
2019-03-19T19:13:38.590Z,961.80
2019-03-19T19:14:38.537Z,961.77
2019-03-19T19:15:38.527Z,961.82
2019-03-19T19:16:38.515Z,961.82
2019-03-19T19:17:38.517Z,961.89
2019-03-19T19:18:38.526Z,961.94
2019-03-19T19:19:38.478Z,961.91
2019-03-19T19:20:38.468Z,961.94
2019-03-19T19:21:38.461Z,961.93
2019-03-19T19:22:38.448Z,961.94
2019-03-19T19:23:38.482Z,961.93
2019-03-19T19:24:38.428Z,961.93
2019-03-19T19:25:38.420Z,961.92
2019-03-19T19:26:38.395Z,961.92
2019-03-19T19:27:38.388Z,961.92
2019-03-19T19:28:38.414Z,961.93
2019-03-19T19:29:38.426Z,961.93
2019-03-19T19:30:38.384Z,961.98
2019-03-19T19:31:38.348Z,961.97
2019-03-19T19:32:38.329Z,961.99
2019-03-19T19:33:38.342Z,961.98
2019-03-19T19:34:38.335Z,962.00
2019-03-19T19:35:38.294Z,962.04
2019-03-19T19:36:38.307Z,962.03
2019-03-19T19:37:38.275Z,962.05
2019-03-19T19:38:38.267Z,962.00
2019-03-19T19:39:38.283Z,962.01
2019-03-19T19:40:38.237Z,962.05
2019-03-19T19:41:38.230Z,962.06
2019-03-19T19:42:38.229Z,962.11
2019-03-19T19:43:38.207Z,962.06
2019-03-19T19:44:38.225Z,962.12
2019-03-19T19:45:38.207Z,962.07
2019-03-19T19:46:38.172Z,962.09
2019-03-19T19:47:38.177Z,962.11
2019-03-19T19:48:38.178Z,962.14
2019-03-19T19:49:38.135Z,962.12
2019-03-19T19:50:38.164Z,962.19
2019-03-19T19:51:38.112Z,962.19
2019-03-19T19:52:38.105Z,962.17
2019-03-19T19:53:38.106Z,962.20
2019-03-19T19:54:38.105Z,962.17
2019-03-19T19:55:38.090Z,962.15
2019-03-19T19:56:38.070Z,962.12
2019-03-19T19:57:38.039Z,962.15
2019-03-19T19:58:38.038Z,962.18
2019-03-19T19:59:38.058Z,962.18
2019-03-19T20:00:38.035Z,962.14
2019-03-19T20:01:37.999Z,962.17
2019-03-19T20:02:37.989Z,962.20
2019-03-19T20:03:37.982Z,962.16
2019-03-19T20:04:38.005Z,962.18
2019-03-19T20:05:37.960Z,962.20
2019-03-19T20:06:38.767Z,962.20
2019-03-19T20:07:37.927Z,962.23
2019-03-19T20:08:37.920Z,962.18
2019-03-19T20:09:37.975Z,962.20
2019-03-19T20:10:37.929Z,962.19
2019-03-19T20:11:38.779Z,962.24
2019-03-19T20:12:37.899Z,962.23
2019-03-19T20:13:37.858Z,962.21
2019-03-19T20:14:39.776Z,962.15
2019-03-19T20:15:37.839Z,962.19
2019-03-19T20:16:37.855Z,962.20
2019-03-19T20:17:37.882Z,962.26
2019-03-19T20:18:37.809Z,962.25
2019-03-19T20:19:37.824Z,962.23
2019-03-19T20:20:37.808Z,962.24
2019-03-19T20:21:37.771Z,962.21
2019-03-19T20:22:37.806Z,962.25
2019-03-19T20:23:37.745Z,962.26
2019-03-19T20:24:37.756Z,962.32
2019-03-19T20:25:37.731Z,962.31
2019-03-19T20:26:37.738Z,962.28
2019-03-19T20:27:37.720Z,962.35
2019-03-19T20:28:37.726Z,962.38
2019-03-19T20:29:37.676Z,962.39
2019-03-19T20:30:37.668Z,962.41
2019-03-19T20:31:37.661Z,962.39
2019-03-19T20:32:42.761Z,962.43
2019-03-19T20:33:37.631Z,962.43
2019-03-19T20:34:38.236Z,962.42
2019-03-19T20:35:37.612Z,962.38
2019-03-19T20:36:37.622Z,962.40
2019-03-19T20:37:37.715Z,962.41
2019-03-19T20:38:37.574Z,962.44
2019-03-19T20:39:37.570Z,962.48
2019-03-19T20:40:37.854Z,962.50
2019-03-19T20:41:37.546Z,962.50
2019-03-19T20:42:37.528Z,962.49
2019-03-19T20:43:37.541Z,962.51
2019-03-19T20:44:37.508Z,962.48
2019-03-19T20:45:38.243Z,962.49
2019-03-19T20:46:37.505Z,962.49
2019-03-19T20:47:37.475Z,962.52
2019-03-19T20:48:37.498Z,962.50
2019-03-19T20:49:47.119Z,962.51
2019-03-19T20:50:37.448Z,962.50
2019-03-19T20:51:37.431Z,962.50
2019-03-19T20:52:37.445Z,962.55
2019-03-19T20:53:37.407Z,962.53
2019-03-19T20:54:37.427Z,962.58
2019-03-19T20:55:37.418Z,962.57
2019-03-19T20:56:37.368Z,962.58
2019-03-19T20:57:37.367Z,962.59
2019-03-19T20:58:43.554Z,962.64
2019-03-19T20:59:37.350Z,962.64
2019-03-19T21:00:37.340Z,962.65
2019-03-19T21:01:37.352Z,962.65
2019-03-19T21:02:37.310Z,962.66
2019-03-19T21:03:37.315Z,962.65
2019-03-19T21:04:37.283Z,962.65
2019-03-19T21:05:37.274Z,962.64
2019-03-19T21:06:38.240Z,962.66
2019-03-19T21:07:37.287Z,962.63
2019-03-19T21:08:37.276Z,962.69
2019-03-19T21:09:37.239Z,962.68
2019-03-19T21:10:37.220Z,962.71
2019-03-19T21:11:37.212Z,962.74
2019-03-19T21:12:37.197Z,962.74
2019-03-19T21:13:37.204Z,962.77
2019-03-19T21:14:37.190Z,962.76
2019-03-19T21:15:37.165Z,962.74
2019-03-19T21:16:37.152Z,962.78
2019-03-19T21:17:37.140Z,962.77
2019-03-19T21:18:37.130Z,962.74
2019-03-19T21:19:37.171Z,962.77
2019-03-19T21:20:37.106Z,962.78
2019-03-19T21:21:37.098Z,962.72
2019-03-19T21:22:37.082Z,962.70
2019-03-19T21:23:37.068Z,962.72
2019-03-19T21:24:37.059Z,962.73
2019-03-19T21:25:37.073Z,962.74
2019-03-19T21:26:37.039Z,962.75
2019-03-19T21:27:37.031Z,962.77
2019-03-19T21:28:37.070Z,962.76
2019-03-19T21:29:37.014Z,962.78
2019-03-19T21:30:37.006Z,962.74
2019-03-19T21:31:36.999Z,962.76
2019-03-19T21:32:37.074Z,962.76
2019-03-19T21:33:36.960Z,962.76
2019-03-19T21:34:36.957Z,962.81
2019-03-19T21:35:36.979Z,962.84
2019-03-19T21:36:36.997Z,962.83
2019-03-19T21:37:36.939Z,962.85
2019-03-19T21:38:36.900Z,962.85
2019-03-19T21:39:36.897Z,962.90
2019-03-19T21:40:36.880Z,962.86
2019-03-19T21:41:36.890Z,962.92
2019-03-19T21:42:36.861Z,962.87
2019-03-19T21:43:36.880Z,962.88
2019-03-19T21:44:36.835Z,962.86
2019-03-19T21:45:36.824Z,962.89
2019-03-19T21:46:36.830Z,962.90
2019-03-19T21:47:36.801Z,962.90
2019-03-19T21:48:36.792Z,962.89
2019-03-19T21:49:36.799Z,962.91
2019-03-19T21:50:36.770Z,962.97
2019-03-19T21:51:36.780Z,962.94
2019-03-19T21:52:36.745Z,962.96
2019-03-19T21:53:36.740Z,963.04
2019-03-19T21:54:36.727Z,963.01
2019-03-19T21:55:36.732Z,962.95
2019-03-19T21:56:36.705Z,962.98
2019-03-19T21:57:36.706Z,963.00
2019-03-19T21:58:36.688Z,963.00
2019-03-19T21:59:36.730Z,963.03
2019-03-19T22:00:36.660Z,963.03
2019-03-19T22:01:36.648Z,963.05
2019-03-19T22:02:36.673Z,963.05
2019-03-19T22:03:36.635Z,963.05
2019-03-19T22:04:36.621Z,963.09
2019-03-19T22:05:36.614Z,963.11
2019-03-19T22:06:36.595Z,963.08
2019-03-19T22:07:36.602Z,963.11
2019-03-19T22:08:36.594Z,963.10
2019-03-19T22:09:36.562Z,963.12
2019-03-19T22:10:36.553Z,963.11
2019-03-19T22:11:36.534Z,963.15
2019-03-19T22:12:36.520Z,963.11
2019-03-19T22:13:36.529Z,963.10
2019-03-19T22:14:36.524Z,963.13
2019-03-19T22:15:36.493Z,963.13
2019-03-19T22:16:36.498Z,963.12
2019-03-19T22:17:36.467Z,963.14
2019-03-19T22:18:36.472Z,963.15
2019-03-19T22:19:36.454Z,963.13
2019-03-19T22:20:36.461Z,963.16
2019-03-19T22:21:36.434Z,963.17
2019-03-19T22:22:36.416Z,963.16
2019-03-19T22:23:36.421Z,963.18
2019-03-19T22:24:36.386Z,963.15
2019-03-19T22:25:37.291Z,963.12
2019-03-19T22:26:37.255Z,963.18
2019-03-19T22:27:36.356Z,963.20
2019-03-19T22:28:36.345Z,963.19
2019-03-19T22:29:36.350Z,963.14
2019-03-19T22:30:36.325Z,963.17
2019-03-19T22:31:36.321Z,963.12
2019-03-19T22:32:36.339Z,963.17
2019-03-19T22:33:36.286Z,963.14
2019-03-19T22:34:36.310Z,963.18
2019-03-19T22:35:36.267Z,963.18
2019-03-19T22:36:36.257Z,963.15
2019-03-19T22:37:36.244Z,963.20
2019-03-19T22:38:36.269Z,963.21
2019-03-19T22:39:37.195Z,963.19
2019-03-19T22:40:36.221Z,963.15
2019-03-19T22:41:36.204Z,963.18
2019-03-19T22:42:36.199Z,963.16
2019-03-19T22:43:36.183Z,963.19
2019-03-19T22:44:36.188Z,963.24
2019-03-19T22:45:36.178Z,963.19
2019-03-19T22:46:36.141Z,963.19
2019-03-19T22:47:36.140Z,963.20
2019-03-19T22:48:36.122Z,963.20
2019-03-19T22:49:36.110Z,963.19
2019-03-19T22:50:36.137Z,963.23
2019-03-19T22:51:36.102Z,963.22
2019-03-19T22:52:36.080Z,963.23
2019-03-19T22:53:36.073Z,963.27
2019-03-19T22:54:36.059Z,963.26
2019-03-19T22:55:36.045Z,963.26
2019-03-19T22:56:36.100Z,963.26
2019-03-19T22:57:36.024Z,963.27
2019-03-19T22:58:36.018Z,963.30
2019-03-19T22:59:36.005Z,963.30
2019-03-19T23:00:36.732Z,963.26
2019-03-19T23:01:36.001Z,963.31
2019-03-19T23:02:35.984Z,963.31
2019-03-19T23:03:35.966Z,963.29
2019-03-19T23:04:35.943Z,963.30
2019-03-19T23:05:35.934Z,963.28
2019-03-19T23:06:35.926Z,963.32
2019-03-19T23:07:35.915Z,963.30
2019-03-19T23:08:35.901Z,963.25
2019-03-19T23:09:36.751Z,963.29
2019-03-19T23:10:35.881Z,963.29
2019-03-19T23:11:35.861Z,963.32
2019-03-19T23:12:35.866Z,963.30
2019-03-19T23:13:35.838Z,963.30
2019-03-19T23:14:35.835Z,963.31
2019-03-19T23:15:35.850Z,963.33
2019-03-19T23:16:35.799Z,963.33
2019-03-19T23:17:35.824Z,963.29
2019-03-19T23:18:35.778Z,963.35
2019-03-19T23:19:35.773Z,963.36
2019-03-19T23:20:35.771Z,963.33
2019-03-19T23:21:35.781Z,963.35
2019-03-19T23:22:35.745Z,963.29
2019-03-19T23:23:35.737Z,963.28
2019-03-19T23:24:35.711Z,963.28
2019-03-19T23:25:35.706Z,963.28
2019-03-19T23:26:35.690Z,963.29
2019-03-19T23:27:35.702Z,963.25
2019-03-19T23:28:35.688Z,963.23
2019-03-19T23:29:35.663Z,963.31
2019-03-19T23:30:35.650Z,963.30
2019-03-19T23:31:35.638Z,963.33
2019-03-19T23:32:35.619Z,963.24
2019-03-19T23:33:35.638Z,963.27
2019-03-19T23:34:38.691Z,963.31
2019-03-19T23:35:35.585Z,963.36
2019-03-19T23:36:35.583Z,963.33
2019-03-19T23:37:35.567Z,963.34
2019-03-19T23:38:35.558Z,963.32
2019-03-19T23:39:35.576Z,963.34
2019-03-19T23:40:35.530Z,963.36
2019-03-19T23:41:35.524Z,963.38
2019-03-19T23:42:35.514Z,963.38
2019-03-19T23:43:35.496Z,963.38
2019-03-19T23:44:35.513Z,963.40
2019-03-19T23:45:35.514Z,963.42
2019-03-19T23:46:35.472Z,963.41
2019-03-19T23:47:35.461Z,963.42
2019-03-19T23:48:35.440Z,963.42
2019-03-19T23:49:35.434Z,963.45
2019-03-19T23:50:35.431Z,963.39
2019-03-19T23:51:35.423Z,963.38
2019-03-19T23:52:35.397Z,963.41
2019-03-19T23:53:35.386Z,963.43
2019-03-19T23:54:35.374Z,963.45
2019-03-19T23:55:35.373Z,963.41
2019-03-19T23:56:35.353Z,963.45
2019-03-19T23:57:35.386Z,963.44
2019-03-19T23:58:35.333Z,963.42
2019-03-19T23:59:35.322Z,963.42
